createdAt,value
2022-11-08T00:00:42.440Z,88.72
2022-11-08T00:03:10.421Z,89.28
2022-11-08T00:05:55.678Z,89.61
2022-11-08T00:08:40.914Z,89.36
2022-11-08T00:11:26.157Z,90.20
2022-11-08T00:14:00.484Z,89.90
2022-11-08T00:16:30.724Z,89.81
2022-11-08T00:18:58.672Z,89.61
2022-11-08T00:21:26.908Z,89.94
2022-11-08T00:23:55.470Z,90.22
2022-11-08T00:26:23.567Z,90.12
2022-11-08T00:28:51.550Z,91.00
2022-11-08T00:31:19.573Z,91.23
2022-11-08T00:33:48.848Z,91.96
2022-11-08T00:36:16.840Z,91.74
2022-11-08T00:38:45.084Z,91.57
2022-11-08T00:41:13.572Z,90.35
2022-11-08T00:43:41.485Z,90.58
2022-11-08T00:46:09.736Z,89.51
2022-11-08T00:48:37.944Z,89.77
2022-11-08T00:51:08.708Z,90.00
2022-11-08T00:53:38.725Z,90.33
2022-11-08T00:56:08.666Z,91.83
2022-11-08T00:58:36.585Z,92.15
2022-11-08T01:01:10.881Z,92.63
2022-11-08T01:03:39.127Z,92.36
2022-11-08T01:06:10.266Z,91.82
2022-11-08T01:08:38.238Z,90.06
2022-11-08T01:11:08.590Z,89.73
2022-11-08T01:13:37.078Z,89.95
2022-11-08T01:16:08.551Z,89.55
2022-11-08T01:18:36.480Z,90.59
2022-11-08T01:21:05.490Z,90.34
2022-11-08T01:23:35.932Z,90.38
2022-11-08T01:26:05.627Z,90.72
2022-11-08T01:28:33.907Z,91.14
2022-11-08T01:31:05.088Z,89.66
2022-11-08T01:33:33.088Z,89.50
2022-11-08T01:36:01.118Z,89.76
2022-11-08T01:38:29.172Z,90.03
2022-11-08T01:40:58.496Z,90.33
2022-11-08T01:43:41.296Z,93.33
2022-11-08T01:46:32.137Z,94.49
2022-11-08T01:49:08.998Z,96.54
2022-11-08T01:51:41.618Z,97.21
2022-11-08T01:54:14.482Z,96.40
2022-11-08T01:56:44.883Z,94.06
2022-11-08T01:59:16.803Z,93.12
2022-11-08T02:01:45.386Z,92.33
2022-11-08T02:04:16.366Z,91.82
2022-11-08T02:06:45.567Z,91.83
2022-11-08T02:09:17.059Z,91.95
2022-11-08T02:11:48.209Z,92.96
2022-11-08T02:14:17.955Z,92.25
2022-11-08T02:16:45.943Z,92.48
2022-11-08T02:19:33.810Z,90.82
2022-11-08T02:22:07.095Z,89.98
2022-11-08T02:24:37.372Z,88.62
2022-11-08T02:27:05.972Z,88.95
2022-11-08T02:29:36.214Z,89.12
2022-11-08T02:32:06.459Z,88.84
2022-11-08T02:34:37.726Z,89.93
2022-11-08T02:37:07.665Z,90.11
2022-11-08T02:39:36.962Z,90.77
2022-11-08T02:42:04.953Z,89.31
2022-11-08T02:44:32.815Z,88.33
2022-11-08T02:47:00.716Z,87.49
2022-11-08T02:49:28.553Z,87.85
2022-11-08T02:51:56.426Z,87.94
2022-11-08T02:54:24.297Z,87.40
2022-11-08T02:56:53.534Z,88.24
2022-11-08T02:59:21.400Z,88.66
2022-11-08T03:01:49.530Z,88.90
2022-11-08T03:04:17.475Z,88.83
2022-11-08T03:06:45.318Z,88.66
2022-11-08T03:09:13.901Z,88.50
2022-11-08T03:11:41.823Z,88.21
2022-11-08T03:14:11.118Z,87.77
2022-11-08T03:16:39.049Z,87.97
2022-11-08T03:19:06.968Z,88.74
2022-11-08T03:21:36.575Z,88.64
2022-11-08T03:24:04.548Z,88.20
2022-11-08T03:26:32.751Z,88.30
2022-11-08T03:29:00.618Z,88.16
2022-11-08T03:31:29.866Z,89.06
2022-11-08T03:33:57.783Z,89.00
2022-11-08T03:36:26.447Z,89.05
2022-11-08T03:38:54.481Z,89.37
2022-11-08T03:41:22.338Z,88.30
2022-11-08T03:43:50.201Z,88.59
2022-11-08T03:46:18.049Z,89.02
2022-11-08T03:48:47.302Z,88.20
2022-11-08T03:51:15.183Z,89.58
2022-11-08T03:53:43.103Z,89.53
2022-11-08T03:56:10.989Z,90.24
2022-11-08T03:58:38.867Z,89.99
2022-11-08T04:01:08.023Z,89.37
2022-11-08T04:03:35.962Z,88.98
2022-11-08T04:06:05.446Z,89.08
2022-11-08T04:08:33.290Z,89.78
2022-11-08T04:11:21.509Z,89.38
2022-11-08T04:14:07.081Z,90.04
2022-11-08T04:16:35.039Z,91.50
2022-11-08T04:19:20.213Z,92.32
2022-11-08T04:21:52.263Z,93.09
2022-11-08T04:24:20.378Z,92.38
2022-11-08T04:26:48.453Z,92.46
2022-11-08T04:29:16.311Z,93.10
2022-11-08T04:31:44.225Z,91.46
2022-11-08T04:34:12.163Z,90.89
2022-11-08T04:36:40.026Z,90.70
2022-11-08T04:39:09.360Z,90.49
2022-11-08T04:41:37.206Z,90.92
2022-11-08T04:44:05.472Z,91.14
2022-11-08T04:46:33.331Z,91.36
2022-11-08T04:49:01.769Z,90.70
2022-11-08T04:51:32.370Z,90.75
2022-11-08T04:54:01.787Z,90.73
2022-11-08T04:56:32.307Z,90.07
2022-11-08T04:59:01.722Z,89.79
2022-11-08T05:01:32.393Z,89.74
2022-11-08T05:04:00.399Z,89.85
2022-11-08T05:06:30.729Z,90.42
2022-11-08T05:08:59.974Z,90.92
2022-11-08T05:11:30.708Z,90.14
2022-11-08T05:13:58.933Z,91.90
2022-11-08T05:16:28.704Z,93.34
2022-11-08T05:18:56.793Z,93.82
2022-11-08T05:21:42.999Z,93.77
2022-11-08T05:24:13.228Z,94.64
2022-11-08T05:26:44.580Z,92.75
2022-11-08T05:29:13.586Z,91.74
2022-11-08T05:31:42.283Z,91.85
2022-11-08T05:34:10.206Z,91.85
2022-11-08T05:36:38.117Z,92.40
2022-11-08T05:39:06.062Z,94.83
2022-11-08T05:41:33.931Z,95.07
2022-11-08T05:44:03.196Z,94.47
2022-11-08T05:46:31.212Z,95.24
2022-11-08T05:48:59.231Z,94.50
2022-11-08T05:51:27.113Z,92.99
2022-11-08T05:53:55.022Z,92.72
2022-11-08T05:56:22.946Z,92.24
2022-11-08T05:58:50.878Z,92.32
2022-11-08T06:01:21.373Z,92.19
2022-11-08T06:03:49.309Z,92.28
2022-11-08T06:06:19.139Z,93.23
2022-11-08T06:08:50.729Z,93.37
2022-11-08T06:11:22.567Z,93.41
2022-11-08T06:13:50.918Z,92.37
2022-11-08T06:16:21.169Z,91.77
2022-11-08T06:18:49.193Z,90.29
2022-11-08T06:21:18.789Z,90.44
2022-11-08T06:23:47.341Z,91.06
2022-11-08T06:26:15.592Z,91.25
2022-11-08T06:28:43.503Z,91.58
2022-11-08T06:31:11.696Z,91.77
2022-11-08T06:33:41.009Z,92.19
2022-11-08T06:36:09.185Z,92.24
2022-11-08T06:38:37.134Z,92.81
2022-11-08T06:41:05.073Z,93.25
2022-11-08T06:43:33.016Z,92.53
2022-11-08T06:46:02.639Z,92.56
2022-11-08T06:48:35.442Z,92.16
2022-11-08T06:51:05.889Z,90.96
2022-11-08T06:53:34.255Z,90.46
2022-11-08T06:56:02.270Z,89.82
2022-11-08T06:58:30.363Z,89.62
2022-11-08T07:00:58.314Z,89.63
2022-11-08T07:03:26.257Z,89.07
2022-11-08T07:05:54.209Z,88.97
2022-11-08T07:08:24.482Z,88.55
2022-11-08T07:10:52.642Z,88.07
2022-11-08T07:13:21.189Z,87.22
2022-11-08T07:15:49.728Z,87.67
2022-11-08T07:18:19.787Z,89.35
2022-11-08T07:20:48.377Z,88.65
2022-11-08T07:23:16.461Z,89.20
2022-11-08T07:25:45.793Z,88.98
2022-11-08T07:28:17.740Z,88.42
2022-11-08T07:30:46.519Z,87.20
2022-11-08T07:33:15.180Z,86.49
2022-11-08T07:35:43.487Z,86.53
2022-11-08T07:38:11.388Z,86.21
2022-11-08T07:40:39.328Z,86.26
2022-11-08T07:43:12.950Z,85.79
2022-11-08T07:45:41.592Z,85.32
2022-11-08T07:48:12.605Z,84.59
2022-11-08T07:50:41.613Z,81.93
2022-11-08T07:53:10.038Z,82.12
2022-11-08T07:55:38.637Z,80.57
2022-11-08T07:58:08.494Z,78.55
2022-11-08T08:00:38.050Z,77.67
2022-11-08T08:03:07.646Z,78.73
2022-11-08T08:05:37.810Z,77.75
2022-11-08T08:08:06.574Z,76.14
2022-11-08T08:10:34.780Z,76.88
2022-11-08T08:13:03.085Z,76.39
2022-11-08T08:15:32.390Z,75.23
2022-11-08T08:18:02.239Z,72.58
2022-11-08T08:20:30.766Z,70.93
2022-11-08T08:22:59.049Z,72.77
2022-11-08T08:25:28.302Z,72.17
2022-11-08T08:27:58.165Z,70.36
2022-11-08T08:30:26.668Z,70.51
2022-11-08T08:33:26.940Z,70.71
2022-11-08T08:35:53.097Z,71.08
2022-11-08T08:38:21.660Z,71.81
2022-11-08T08:40:49.571Z,71.64
2022-11-08T08:43:17.774Z,72.75
2022-11-08T08:45:46.073Z,70.14
2022-11-08T08:48:15.825Z,70.84
2022-11-08T08:50:43.775Z,71.29
2022-11-08T08:53:11.914Z,71.29
2022-11-08T08:55:41.819Z,71.49
2022-11-08T08:58:10.949Z,70.76
2022-11-08T09:03:28.717Z,70.07
2022-11-08T09:05:58.311Z,70.28
2022-11-08T09:08:26.623Z,69.95
2022-11-08T09:10:55.742Z,67.88
2022-11-08T09:13:23.942Z,69.66
2022-11-08T09:15:52.033Z,67.96
2022-11-08T09:18:20.352Z,68.52
2022-11-08T09:20:49.872Z,68.26
2022-11-08T09:23:18.747Z,68.66
2022-11-08T09:25:46.932Z,68.97
2022-11-08T09:28:14.869Z,68.44
2022-11-08T09:30:42.838Z,68.99
2022-11-08T09:33:10.844Z,68.63
2022-11-08T09:35:38.919Z,67.67
2022-11-08T09:38:08.613Z,66.56
2022-11-08T09:40:41.186Z,67.38
2022-11-08T09:43:33.005Z,67.59
2022-11-08T09:46:01.125Z,65.73
2022-11-08T09:48:34.085Z,65.26
2022-11-08T09:51:07.332Z,65.16
2022-11-08T09:53:45.236Z,64.54
2022-11-08T09:56:18.024Z,65.23
2022-11-08T09:58:51.786Z,61.91
2022-11-08T10:01:24.513Z,63.46
2022-11-08T10:03:57.902Z,62.48
2022-11-08T10:06:47.722Z,63.06
2022-11-08T10:09:34.794Z,63.03
2022-11-08T10:12:12.335Z,62.09
2022-11-08T10:14:54.649Z,61.89
2022-11-08T10:17:40.467Z,61.17
2022-11-08T10:20:20.467Z,61.39
2022-11-08T10:22:56.100Z,60.60
2022-11-08T10:25:31.172Z,60.99
2022-11-08T10:28:01.736Z,61.38
2022-11-08T10:30:35.220Z,61.70
2022-11-08T10:33:03.943Z,61.42
2022-11-08T10:35:39.430Z,61.25
2022-11-08T10:38:19.108Z,61.84
2022-11-08T10:40:57.383Z,60.52
2022-11-08T10:43:34.972Z,60.55
2022-11-08T10:46:03.030Z,62.53
2022-11-08T10:48:35.420Z,62.43
2022-11-08T10:51:03.361Z,62.68
2022-11-08T10:53:32.556Z,62.06
2022-11-08T10:56:04.306Z,62.36
2022-11-08T10:58:39.054Z,62.95
2022-11-08T11:01:16.455Z,62.62
2022-11-08T11:03:44.762Z,63.67
2022-11-08T11:06:25.106Z,62.34
2022-11-08T11:08:56.250Z,63.28
2022-11-08T11:11:28.706Z,61.47
2022-11-08T11:14:16.427Z,60.77
2022-11-08T11:16:55.717Z,60.63
2022-11-08T11:19:25.076Z,60.75
2022-11-08T11:21:58.204Z,62.21
2022-11-08T11:24:26.992Z,63.30
2022-11-08T11:27:07.500Z,61.74
2022-11-08T11:29:36.856Z,61.18
2022-11-08T11:32:23.927Z,61.25
2022-11-08T11:34:55.906Z,61.77
2022-11-08T11:37:33.315Z,62.25
2022-11-08T11:40:08.449Z,62.83
2022-11-08T11:42:46.737Z,60.97
2022-11-08T11:45:19.961Z,60.82
2022-11-08T11:47:53.695Z,61.09
2022-11-08T11:50:24.317Z,60.11
2022-11-08T11:52:52.318Z,60.41
2022-11-08T11:55:21.285Z,59.18
2022-11-08T11:58:06.462Z,58.06
2022-11-08T12:00:38.461Z,57.84
2022-11-08T12:03:28.256Z,59.09
2022-11-08T12:06:18.336Z,59.62
2022-11-08T12:09:00.358Z,59.30
2022-11-08T12:11:41.798Z,58.25
2022-11-08T12:14:25.919Z,59.03
2022-11-08T12:17:00.886Z,58.47
2022-11-08T12:19:41.601Z,58.84
2022-11-08T12:22:26.989Z,58.47
2022-11-08T12:25:05.097Z,59.58
2022-11-08T12:27:46.226Z,59.37
2022-11-08T12:30:19.270Z,59.07
2022-11-08T12:33:14.032Z,58.12
2022-11-08T12:35:57.041Z,58.65
2022-11-08T12:38:32.604Z,59.96
2022-11-08T12:41:12.921Z,58.61
2022-11-08T12:43:56.039Z,59.28
2022-11-08T12:46:26.007Z,59.00
2022-11-08T12:49:07.550Z,59.72
2022-11-08T12:51:52.486Z,57.55
2022-11-08T12:54:26.439Z,57.59
2022-11-08T12:56:59.172Z,59.14
2022-11-08T12:59:33.996Z,58.65
2022-11-08T13:02:05.327Z,58.16
2022-11-08T13:04:44.057Z,57.48
2022-11-08T13:07:20.944Z,58.09
2022-11-08T13:09:57.106Z,59.54
2022-11-08T13:12:41.895Z,58.21
2022-11-08T13:15:17.404Z,59.16
2022-11-08T13:18:33.706Z,59.36
2022-11-08T13:21:01.706Z,59.26
2022-11-08T13:23:31.594Z,60.13
2022-11-08T13:26:17.903Z,61.06
2022-11-08T13:28:46.665Z,61.01
2022-11-08T13:31:21.496Z,61.77
2022-11-08T13:34:08.549Z,62.23
2022-11-08T13:36:48.661Z,62.38
2022-11-08T13:39:33.749Z,62.57
2022-11-08T13:42:05.202Z,62.80
2022-11-08T13:45:00.314Z,63.00
2022-11-08T13:47:53.443Z,62.89
2022-11-08T13:51:00.975Z,63.12
2022-11-08T13:53:47.925Z,64.22
2022-11-08T13:56:47.398Z,64.69
2022-11-08T13:59:57.765Z,64.91
2022-11-08T14:02:52.596Z,65.09
2022-11-08T14:05:42.763Z,65.36
2022-11-08T14:08:18.869Z,65.59
2022-11-08T14:11:38.554Z,65.55
2022-11-08T14:14:22.034Z,65.61
2022-11-08T14:17:01.689Z,65.43
2022-11-08T14:19:33.393Z,65.85
2022-11-08T14:22:03.017Z,66.15
2022-11-08T14:24:37.786Z,66.12
2022-11-08T14:27:05.740Z,66.52
2022-11-08T14:29:35.086Z,67.03
2022-11-08T14:32:05.636Z,66.89
2022-11-08T14:34:36.662Z,66.83
2022-11-08T14:37:06.301Z,66.84
2022-11-08T14:39:35.738Z,67.04
2022-11-08T14:42:06.671Z,67.42
2022-11-08T14:44:36.292Z,67.53
2022-11-08T14:47:05.557Z,67.44
2022-11-08T14:49:35.074Z,66.68
2022-11-08T14:52:15.105Z,66.18
2022-11-08T14:54:45.092Z,66.22
2022-11-08T14:57:31.641Z,65.14
2022-11-08T15:00:03.418Z,64.70
2022-11-08T15:02:31.738Z,64.44
2022-11-08T15:04:59.718Z,64.84
2022-11-08T15:07:28.264Z,64.51
2022-11-08T15:09:56.669Z,64.62
2022-11-08T15:12:26.280Z,64.34
2022-11-08T15:15:00.046Z,64.50
2022-11-08T15:17:35.543Z,64.52
2022-11-08T15:20:19.258Z,64.73
2022-11-08T15:22:48.859Z,64.74
2022-11-08T15:25:30.381Z,64.75
2022-11-08T15:28:00.029Z,64.83
2022-11-08T15:30:39.253Z,64.83
2022-11-08T15:33:22.405Z,64.97
2022-11-08T15:35:51.583Z,65.86
2022-11-08T15:38:30.296Z,66.48
2022-11-08T15:41:00.717Z,67.13
2022-11-08T15:43:41.228Z,67.53
2022-11-08T15:46:30.608Z,67.79
2022-11-08T15:49:00.909Z,68.55
2022-11-08T15:51:28.781Z,68.92
2022-11-08T15:53:56.709Z,69.63
2022-11-08T15:56:24.740Z,69.88
2022-11-08T15:58:52.895Z,70.30
2022-11-08T16:01:23.069Z,71.00
2022-11-08T16:03:51.117Z,71.54
2022-11-08T16:06:20.423Z,71.57
2022-11-08T16:08:48.340Z,71.66
2022-11-08T16:11:21.263Z,71.72
2022-11-08T16:13:51.404Z,72.32
2022-11-08T16:16:19.913Z,72.23
2022-11-08T16:18:47.848Z,72.63
2022-11-08T16:21:16.116Z,72.46
2022-11-08T16:23:45.400Z,71.87
2022-11-08T16:26:17.204Z,72.44
2022-11-08T16:28:45.760Z,72.80
2022-11-08T16:31:15.936Z,73.35
2022-11-08T16:33:45.953Z,74.01
2022-11-08T16:36:19.193Z,73.89
2022-11-08T16:38:51.798Z,73.99
2022-11-08T16:41:19.880Z,73.31
2022-11-08T16:43:47.873Z,73.15
2022-11-08T16:46:16.614Z,73.60
2022-11-08T16:48:47.766Z,74.05
2022-11-08T16:51:19.380Z,73.96
2022-11-08T16:53:49.014Z,73.99
2022-11-08T16:56:17.420Z,73.89
2022-11-08T16:58:45.502Z,73.89
2022-11-08T17:01:17.269Z,73.86
2022-11-08T17:03:45.311Z,74.03
2022-11-08T17:06:18.169Z,74.37
2022-11-08T17:08:46.369Z,74.86
2022-11-08T17:11:18.402Z,75.06
2022-11-08T17:13:46.914Z,75.12
2022-11-08T17:16:16.202Z,75.61
2022-11-08T17:18:47.462Z,75.90
2022-11-08T17:24:06.811Z,76.53
2022-11-08T17:26:36.191Z,75.86
2022-11-08T17:29:05.215Z,75.71
2022-11-08T17:31:33.131Z,75.58
2022-11-08T17:34:01.055Z,75.80
2022-11-08T17:36:28.997Z,75.65
2022-11-08T17:38:56.940Z,75.99
2022-11-08T17:41:24.910Z,76.27
2022-11-08T17:43:54.323Z,76.55
2022-11-08T17:46:22.437Z,76.53
2022-11-08T17:48:50.586Z,76.57
2022-11-08T17:51:18.565Z,76.70
2022-11-08T17:53:46.476Z,76.92
2022-11-08T17:56:14.636Z,77.08
2022-11-08T17:58:42.588Z,77.10
2022-11-08T18:01:12.005Z,77.44
2022-11-08T18:03:40.077Z,77.39
2022-11-08T18:06:11.548Z,76.77
2022-11-08T18:08:40.166Z,76.06
2022-11-08T18:11:08.116Z,76.18
2022-11-08T18:13:36.282Z,76.18
2022-11-08T18:16:09.117Z,75.98
2022-11-08T18:18:39.347Z,76.24
2022-11-08T18:21:08.213Z,76.80
2022-11-08T18:23:36.469Z,77.17
2022-11-08T18:26:05.182Z,77.08
2022-11-08T18:28:33.148Z,77.19
2022-11-08T18:31:05.961Z,77.45
2022-11-08T18:33:34.074Z,76.83
2022-11-08T18:36:06.065Z,77.53
2022-11-08T18:38:35.582Z,78.07
2022-11-08T18:41:03.615Z,78.32
2022-11-08T18:43:31.719Z,78.67
2022-11-08T18:46:04.061Z,78.55
2022-11-08T18:48:35.627Z,78.33
2022-11-08T18:51:05.253Z,78.18
2022-11-08T18:53:33.250Z,77.89
2022-11-08T18:56:01.573Z,77.43
2022-11-08T18:58:29.715Z,78.01
2022-11-08T19:00:58.738Z,77.97
2022-11-08T19:03:27.283Z,77.78
2022-11-08T19:05:55.776Z,77.57
2022-11-08T19:08:27.059Z,77.75
2022-11-08T19:10:56.878Z,77.38
2022-11-08T19:13:27.132Z,77.58
2022-11-08T19:15:58.997Z,77.95
2022-11-08T19:18:27.521Z,78.30
2022-11-08T19:20:57.044Z,78.75
2022-11-08T19:23:27.003Z,79.27
2022-11-08T19:25:56.433Z,79.64
2022-11-08T19:28:27.956Z,79.74
2022-11-08T19:30:58.301Z,80.39
2022-11-08T19:33:28.308Z,81.07
2022-11-08T19:35:56.851Z,81.07
2022-11-08T19:38:26.162Z,80.94
2022-11-08T19:40:54.078Z,81.53
2022-11-08T19:43:22.039Z,81.67
2022-11-08T19:45:54.455Z,81.64
2022-11-08T19:48:22.728Z,81.68
2022-11-08T19:50:50.826Z,81.82
2022-11-08T19:53:18.733Z,82.10
2022-11-08T19:55:48.053Z,80.54
2022-11-08T19:58:16.342Z,79.83
2022-11-08T20:00:44.465Z,79.74
2022-11-08T20:03:12.400Z,80.38
2022-11-08T20:05:40.338Z,81.63
2022-11-08T20:08:09.774Z,82.91
2022-11-08T20:10:37.698Z,82.61
2022-11-08T20:13:08.888Z,82.77
2022-11-08T20:15:37.004Z,83.18
2022-11-08T20:18:05.223Z,83.00
2022-11-08T20:20:33.216Z,82.79
2022-11-08T20:23:01.169Z,82.20
2022-11-08T20:25:29.145Z,82.85
2022-11-08T20:27:57.058Z,83.69
2022-11-08T20:30:26.581Z,82.12
2022-11-08T20:32:54.750Z,81.12
2022-11-08T20:35:23.394Z,80.20
2022-11-08T20:37:51.729Z,79.60
2022-11-08T20:40:19.670Z,79.76
2022-11-08T20:42:47.574Z,80.04
2022-11-08T20:45:15.704Z,80.68
2022-11-08T20:47:45.022Z,81.07
2022-11-08T20:50:12.975Z,80.91
2022-11-08T20:52:40.906Z,82.21
2022-11-08T20:55:09.462Z,82.86
2022-11-08T20:57:37.372Z,84.01
2022-11-08T21:00:13.078Z,84.33
2022-11-08T21:02:41.815Z,83.70
2022-11-08T21:05:11.322Z,84.24
2022-11-08T21:08:01.963Z,84.59
2022-11-08T21:10:42.478Z,84.37
2022-11-08T21:13:11.147Z,83.95
2022-11-08T21:15:39.097Z,82.92
2022-11-08T21:18:07.031Z,82.20
2022-11-08T21:20:36.430Z,83.49
2022-11-08T21:23:04.372Z,82.94
2022-11-08T21:25:32.570Z,83.03
2022-11-08T21:28:00.606Z,83.37
2022-11-08T21:30:29.509Z,83.21
2022-11-08T21:32:57.442Z,87.42
2022-11-08T21:35:25.539Z,90.06
2022-11-08T21:37:54.938Z,87.98
2022-11-08T21:40:22.866Z,94.13
2022-11-08T21:42:50.781Z,94.60
2022-11-08T21:45:18.887Z,92.70
2022-11-08T21:47:50.429Z,86.54
2022-11-08T21:50:18.663Z,84.44
2022-11-08T21:52:46.888Z,83.41
2022-11-08T21:55:16.869Z,84.16
2022-11-08T21:57:45.252Z,84.19
2022-11-08T22:00:14.494Z,84.10
2022-11-08T22:02:42.617Z,84.52
2022-11-08T22:05:11.377Z,87.61
2022-11-08T22:07:39.503Z,86.05
2022-11-08T22:10:08.704Z,86.99
2022-11-08T22:12:38.006Z,84.99
2022-11-08T22:15:06.912Z,82.54
2022-11-08T22:17:35.040Z,83.18
2022-11-08T22:20:03.368Z,83.82
2022-11-08T22:22:31.288Z,83.20
2022-11-08T22:24:59.206Z,84.13
2022-11-08T22:27:27.190Z,85.25
2022-11-08T22:29:56.502Z,86.14
2022-11-08T22:32:24.421Z,86.77
2022-11-08T22:34:52.350Z,87.37
2022-11-08T22:37:20.288Z,87.10
2022-11-08T22:39:48.220Z,86.44
2022-11-08T22:42:16.252Z,84.43
2022-11-08T22:44:44.398Z,83.09
2022-11-08T22:47:13.900Z,83.59
2022-11-08T22:49:44.986Z,83.91
2022-11-08T22:52:13.211Z,84.07
2022-11-08T22:54:41.152Z,84.58
2022-11-08T22:57:09.068Z,85.00
2022-11-08T22:59:36.963Z,85.88
2022-11-08T23:02:04.877Z,86.40
2022-11-08T23:04:34.182Z,84.92
2022-11-08T23:07:02.165Z,84.57
2022-11-08T23:09:30.143Z,84.47
2022-11-08T23:12:15.292Z,84.59
2022-11-08T23:15:00.688Z,85.43
2022-11-08T23:17:28.585Z,85.33
2022-11-08T23:20:14.864Z,85.19
2022-11-08T23:23:00.260Z,86.37
2022-11-08T23:25:28.163Z,85.69
2022-11-08T23:28:13.403Z,84.98
2022-11-08T23:30:58.764Z,85.90
2022-11-08T23:33:26.682Z,86.90
2022-11-08T23:36:15.783Z,87.03
2022-11-08T23:38:44.705Z,87.38
2022-11-08T23:41:30.112Z,87.10
2022-11-08T23:44:15.457Z,87.56
2022-11-08T23:46:43.385Z,87.90
2022-11-08T23:49:11.294Z,87.59
2022-11-08T23:51:40.664Z,87.27
2022-11-08T23:54:08.736Z,87.49
2022-11-08T23:56:36.680Z,87.46
2022-11-08T23:59:04.729Z,87.08
